Ussuriysk, Russia
Current Conditions -  °F | °C
As of 10:30 PM on Saturday 25 Oct 2014 (Local Time) from UHWW Reporting Station
Haze Haze  
Wind Chill: 54°   Ceiling: 5000
Heat Index: 54°   Visibility: 1.2mi
Dew Point: 52°   Wind: 7mph
Humidity: 94%   Direction: 10°N
Pressure: 29.88"   Gusts: NA
Location:  43.8°N, 132.01°E
Report Text: UHWW 251230Z 01003MPS 2000 BR OVC050 12/11 Q1012 NOSIG RMKQFE758/1011 25CLRD70
Loading
Personal Weather Stations






























Interactive Weather Map
Tropical Storm Tracking
New forecast layout! Learn more

10-Day Weather Forecast

Advertisements
Track Severe Weather on mobile